createdAt,value
2022-08-19T00:02:50.454Z,6.70
2022-08-19T00:05:53.630Z,7.17
2022-08-19T00:08:56.877Z,7.17
2022-08-19T00:12:01.922Z,6.90
2022-08-19T00:15:06.227Z,6.90
2022-08-19T00:18:15.440Z,6.73
2022-08-19T00:21:19.072Z,6.70
2022-08-19T00:24:22.566Z,6.70
2022-08-19T00:27:27.193Z,7.10
2022-08-19T00:30:31.164Z,7.10
2022-08-19T00:33:35.294Z,6.53
2022-08-19T00:36:38.640Z,7.20
2022-08-19T00:39:41.832Z,7.17
2022-08-19T00:42:47.032Z,7.17
2022-08-19T00:45:51.002Z,7.43
2022-08-19T00:48:54.134Z,7.43
2022-08-19T00:52:03.451Z,6.80
2022-08-19T00:55:12.794Z,7.53
2022-08-19T00:58:22.356Z,8.27
2022-08-19T01:01:25.466Z,7.20
2022-08-19T01:04:28.631Z,7.30
2022-08-19T01:07:37.589Z,7.37
2022-08-19T01:10:45.516Z,7.87
2022-08-19T01:13:51.925Z,6.87
2022-08-19T01:16:57.974Z,7.07
2022-08-19T01:20:01.136Z,7.00
2022-08-19T01:23:06.070Z,8.47
2022-08-19T01:26:09.163Z,7.37
2022-08-19T01:29:13.010Z,7.20
2022-08-19T01:32:32.115Z,7.20
2022-08-19T01:35:38.318Z,7.63
2022-08-19T01:38:44.946Z,7.53
2022-08-19T01:41:48.919Z,8.00
2022-08-19T01:44:51.964Z,8.40
2022-08-19T01:48:01.952Z,7.93
2022-08-19T01:51:05.990Z,7.63
2022-08-19T01:54:11.120Z,7.57
2022-08-19T01:57:16.649Z,7.93
2022-08-19T02:00:22.455Z,7.57
2022-08-19T02:03:26.130Z,7.57
2022-08-19T02:06:29.749Z,8.47
2022-08-19T02:09:34.874Z,8.30
2022-08-19T02:12:37.995Z,6.87
2022-08-19T02:15:41.407Z,7.73
2022-08-19T02:18:44.882Z,7.80
2022-08-19T02:21:48.398Z,7.53
2022-08-19T02:24:52.910Z,7.00
2022-08-19T02:27:56.162Z,7.33
2022-08-19T02:31:01.748Z,7.10
2022-08-19T02:34:04.945Z,7.00
2022-08-19T02:37:28.270Z,7.93
2022-08-19T02:40:34.919Z,7.23
2022-08-19T02:43:38.191Z,7.40
2022-08-19T02:46:41.778Z,6.93
2022-08-19T02:49:44.839Z,7.13
2022-08-19T02:52:47.954Z,7.37
2022-08-19T02:55:52.918Z,8.67
2022-08-19T02:58:57.619Z,7.90
2022-08-19T03:02:00.771Z,7.83
2022-08-19T03:05:05.351Z,9.30
2022-08-19T03:08:08.958Z,11.17
2022-08-19T03:11:17.576Z,11.83
2022-08-19T03:14:20.641Z,12.30
2022-08-19T03:17:23.766Z,11.27
2022-08-19T03:20:27.496Z,11.70
2022-08-19T03:23:30.662Z,11.83
2022-08-19T03:26:35.942Z,13.37
2022-08-19T03:29:43.109Z,18.63
2022-08-19T03:32:46.528Z,22.77
2022-08-19T03:36:09.483Z,19.27
2022-08-19T03:39:13.040Z,16.93
2022-08-19T03:42:32.824Z,16.80
2022-08-19T03:45:41.164Z,18.23
2022-08-19T03:48:46.149Z,16.03
2022-08-19T03:51:51.257Z,20.30
2022-08-19T03:54:54.334Z,82.90
2022-08-19T03:57:59.437Z,119.07
2022-08-19T04:01:02.636Z,98.60
2022-08-19T04:04:06.167Z,67.60
2022-08-19T04:07:11.997Z,42.87
2022-08-19T04:10:15.059Z,32.83
2022-08-19T04:13:20.444Z,39.07
2022-08-19T04:16:25.108Z,26.30
2022-08-19T04:19:39.642Z,30.13
2022-08-19T04:22:42.851Z,39.00
2022-08-19T04:25:46.768Z,25.43
2022-08-19T04:28:52.576Z,25.63
2022-08-19T04:31:57.611Z,23.33
2022-08-19T04:35:02.176Z,15.87
2022-08-19T04:38:21.525Z,16.10
2022-08-19T04:41:42.875Z,25.07
2022-08-19T04:44:47.385Z,30.47
2022-08-19T04:47:57.948Z,18.53
2022-08-19T04:51:15.243Z,14.00
2022-08-19T04:54:37.947Z,14.60
2022-08-19T04:57:42.306Z,16.20
2022-08-19T05:00:46.887Z,18.90
2022-08-19T05:03:50.195Z,12.80
2022-08-19T05:06:54.379Z,13.60
2022-08-19T05:10:03.231Z,12.43
2022-08-19T05:13:06.719Z,13.17
2022-08-19T05:16:13.034Z,9.80
2022-08-19T05:19:34.004Z,10.40
2022-08-19T05:22:38.097Z,9.83
2022-08-19T05:25:42.031Z,9.07
2022-08-19T05:28:45.483Z,9.17
2022-08-19T05:31:51.489Z,9.67
2022-08-19T05:34:54.605Z,10.87
2022-08-19T05:37:59.023Z,10.60
2022-08-19T05:41:02.301Z,11.13
2022-08-19T05:44:10.190Z,10.53
2022-08-19T05:47:16.323Z,11.30
2022-08-19T05:50:19.514Z,12.07
2022-08-19T05:53:22.719Z,10.20
2022-08-19T05:56:26.035Z,17.90
2022-08-19T05:59:29.623Z,10.60
2022-08-19T06:02:36.466Z,11.73
2022-08-19T06:05:49.527Z,12.60
2022-08-19T06:08:55.196Z,10.50
2022-08-19T06:12:01.062Z,9.40
2022-08-19T06:15:07.457Z,10.73
2022-08-19T06:18:11.914Z,9.03
2022-08-19T06:21:15.347Z,10.30
2022-08-19T06:24:21.113Z,12.70
2022-08-19T06:27:24.794Z,10.07
2022-08-19T06:30:28.011Z,9.70
2022-08-19T06:33:32.467Z,11.87
2022-08-19T06:36:38.633Z,13.60
2022-08-19T06:39:44.261Z,8.80
2022-08-19T06:42:54.330Z,8.67
2022-08-19T06:46:00.017Z,9.30
2022-08-19T06:49:06.198Z,13.80
2022-08-19T06:52:13.878Z,10.30
2022-08-19T06:55:18.481Z,16.10
2022-08-19T06:58:22.135Z,9.90
2022-08-19T07:01:25.265Z,9.87
2022-08-19T07:04:32.659Z,12.40
2022-08-19T07:07:37.482Z,18.40
2022-08-19T07:10:45.417Z,11.60
2022-08-19T07:13:49.672Z,9.80
2022-08-19T07:16:59.203Z,10.07
2022-08-19T07:20:05.037Z,9.47
2022-08-19T07:23:10.543Z,9.73
2022-08-19T07:26:27.657Z,14.50
2022-08-19T07:29:34.052Z,9.50
2022-08-19T07:32:38.409Z,13.10
2022-08-19T07:35:43.292Z,13.03
2022-08-19T07:38:49.434Z,15.27
2022-08-19T07:41:52.587Z,13.73
2022-08-19T07:44:55.717Z,14.80
2022-08-19T07:47:59.475Z,17.73
2022-08-19T07:51:07.842Z,24.43
2022-08-19T07:54:10.927Z,24.00
2022-08-19T07:57:14.003Z,30.83
2022-08-19T08:00:21.681Z,20.90
2022-08-19T08:03:42.286Z,26.47
2022-08-19T08:07:04.071Z,27.80
2022-08-19T08:10:20.549Z,47.47
2022-08-19T08:13:24.529Z,37.80
2022-08-19T08:16:30.979Z,41.00
2022-08-19T08:19:35.229Z,16.80
2022-08-19T08:23:02.089Z,29.67
2022-08-19T08:26:05.785Z,29.00
2022-08-19T08:29:13.766Z,21.40
2022-08-19T08:32:17.411Z,16.90
2022-08-19T08:35:23.075Z,13.60
2022-08-19T08:38:28.241Z,11.10
2022-08-19T08:41:46.081Z,12.70
2022-08-19T08:48:21.933Z,17.33
2022-08-19T08:51:34.977Z,14.53
2022-08-19T08:54:48.992Z,11.90
2022-08-19T08:58:03.025Z,9.53
2022-08-19T09:01:06.306Z,11.30
2022-08-19T09:04:09.930Z,10.40
2022-08-19T09:07:34.960Z,10.67
2022-08-19T09:10:45.550Z,9.90
2022-08-19T09:14:34.904Z,11.43
2022-08-19T09:17:37.021Z,10.83
2022-08-19T09:20:42.566Z,7.10
2022-08-19T09:23:46.538Z,7.17
2022-08-19T09:26:55.562Z,7.83
2022-08-19T09:30:00.578Z,9.73
2022-08-19T09:33:05.607Z,9.57
2022-08-19T09:36:11.690Z,7.70
2022-08-19T09:39:16.416Z,7.17
2022-08-19T09:42:30.057Z,7.30
2022-08-19T09:45:34.566Z,7.73
2022-08-19T09:48:38.108Z,8.20
2022-08-19T09:51:41.670Z,8.83
2022-08-19T09:54:44.794Z,8.13
2022-08-19T09:57:57.718Z,8.20
2022-08-19T10:01:02.026Z,8.83
2022-08-19T10:04:19.735Z,8.17
2022-08-19T10:07:36.015Z,7.80
2022-08-19T10:10:39.621Z,9.33
2022-08-19T10:13:47.967Z,10.60
2022-08-19T10:16:52.544Z,14.83
2022-08-19T10:19:56.282Z,27.43
2022-08-19T10:23:00.924Z,8.73
2022-08-19T10:26:07.034Z,10.17
2022-08-19T10:29:12.797Z,8.53
2022-08-19T10:32:15.962Z,11.23
2022-08-19T10:35:22.103Z,8.33
2022-08-19T10:38:31.671Z,10.37
2022-08-19T10:41:37.934Z,13.30
2022-08-19T10:44:42.474Z,13.77
2022-08-19T10:47:45.578Z,14.20
2022-08-19T10:51:08.702Z,15.23
2022-08-19T10:54:12.406Z,14.60
2022-08-19T10:57:15.575Z,30.87
2022-08-19T11:00:20.655Z,19.10
2022-08-19T11:03:24.074Z,18.43
2022-08-19T11:06:27.255Z,16.00
2022-08-19T11:09:33.923Z,17.30
2022-08-19T11:12:40.226Z,14.20
2022-08-19T11:15:46.872Z,14.40
2022-08-19T11:18:52.551Z,12.70
2022-08-19T11:21:57.616Z,11.40
2022-08-19T11:25:03.474Z,12.23
2022-08-19T11:28:07.020Z,12.90
2022-08-19T11:31:14.602Z,12.97
2022-08-19T11:34:20.922Z,12.30
2022-08-19T11:37:24.034Z,12.63
2022-08-19T11:40:27.110Z,9.53
2022-08-19T11:43:34.385Z,9.73
2022-08-19T11:46:46.576Z,9.33
2022-08-19T11:49:49.790Z,10.40
2022-08-19T11:52:55.487Z,10.50
2022-08-19T11:55:58.581Z,10.83
2022-08-19T11:59:03.114Z,11.37
2022-08-19T12:02:08.060Z,12.43
2022-08-19T12:05:12.828Z,11.30
2022-08-19T12:08:16.652Z,12.87
2022-08-19T12:11:20.185Z,12.30
2022-08-19T12:14:24.122Z,10.40
2022-08-19T12:17:29.514Z,10.40
2022-08-19T12:20:32.713Z,10.60
2022-08-19T12:23:39.725Z,11.30
2022-08-19T12:26:53.237Z,11.70
2022-08-19T12:29:56.619Z,11.57
2022-08-19T12:33:01.054Z,12.73
2022-08-19T12:36:07.193Z,12.00
2022-08-19T12:39:10.729Z,13.57
2022-08-19T12:42:16.624Z,14.30
2022-08-19T12:45:20.192Z,14.93
2022-08-19T12:48:33.274Z,14.00
2022-08-19T12:51:37.376Z,14.30
2022-08-19T12:54:40.457Z,14.23
2022-08-19T12:57:43.604Z,14.40
2022-08-19T13:00:46.716Z,14.80
2022-08-19T13:03:51.504Z,14.90
2022-08-19T13:06:54.566Z,13.80
2022-08-19T13:09:57.760Z,15.03
2022-08-19T13:13:02.715Z,15.03
2022-08-19T13:16:06.158Z,14.93
2022-08-19T13:19:11.770Z,14.93
2022-08-19T13:22:15.142Z,14.77
2022-08-19T13:25:20.521Z,14.00
2022-08-19T13:28:29.222Z,14.60
2022-08-19T13:31:51.952Z,13.20
2022-08-19T13:34:56.421Z,15.67
2022-08-19T13:37:59.574Z,14.90
2022-08-19T13:41:12.125Z,13.63
2022-08-19T13:44:16.591Z,14.53
2022-08-19T13:47:19.924Z,13.50
2022-08-19T13:50:26.966Z,14.10
2022-08-19T13:53:32.369Z,13.87
2022-08-19T13:56:35.452Z,14.83
2022-08-19T13:59:38.640Z,14.27
2022-08-19T14:02:42.419Z,16.13
2022-08-19T14:05:47.780Z,17.07
2022-08-19T14:08:54.054Z,15.93
2022-08-19T14:11:57.268Z,19.30
2022-08-19T14:23:53.077Z,15.57
2022-08-19T14:26:56.749Z,15.83
2022-08-19T14:30:00.198Z,17.23
2022-08-19T14:33:04.285Z,15.73
2022-08-19T14:36:08.113Z,14.87
2022-08-19T14:39:12.662Z,14.53
2022-08-19T14:42:16.107Z,15.93
2022-08-19T14:45:19.328Z,15.93
2022-08-19T14:48:22.573Z,14.93
2022-08-19T14:51:33.518Z,15.57
2022-08-19T14:54:37.981Z,15.27
2022-08-19T14:57:42.868Z,14.87
2022-08-19T15:00:45.951Z,15.50
2022-08-19T15:03:49.654Z,19.37
2022-08-19T15:06:52.841Z,27.57
2022-08-19T15:09:57.489Z,21.00
2022-08-19T15:13:00.514Z,24.13
2022-08-19T15:16:04.033Z,22.90
2022-08-19T15:19:07.323Z,16.10
2022-08-19T15:22:10.543Z,23.13
2022-08-19T15:25:17.060Z,17.00
2022-08-19T15:28:20.072Z,15.53
2022-08-19T15:31:28.087Z,15.53
2022-08-19T15:34:32.349Z,16.27
2022-08-19T15:37:37.385Z,17.33
2022-08-19T15:40:43.387Z,16.90
2022-08-19T15:43:46.658Z,14.90
2022-08-19T15:46:50.420Z,16.37
2022-08-19T15:49:57.717Z,15.30
2022-08-19T15:53:05.197Z,18.70
2022-08-19T15:56:10.422Z,16.20
2022-08-19T15:59:30.838Z,14.67
2022-08-19T16:02:53.456Z,13.57
2022-08-19T16:06:14.600Z,19.70
2022-08-19T16:09:24.927Z,14.30
2022-08-19T16:12:32.591Z,17.77
2022-08-19T16:15:35.704Z,15.70
2022-08-19T16:18:39.354Z,24.53
2022-08-19T16:21:43.589Z,26.40
2022-08-19T16:24:46.670Z,23.50
2022-08-19T16:28:06.161Z,24.17
2022-08-19T16:31:12.163Z,27.50
2022-08-19T16:34:15.786Z,35.93
2022-08-19T16:37:20.557Z,36.70
2022-08-19T16:40:24.948Z,38.90
2022-08-19T16:43:32.032Z,34.70
2022-08-19T16:46:37.307Z,32.03
2022-08-19T16:49:54.436Z,32.40
2022-08-19T16:52:59.006Z,34.43
2022-08-19T16:56:02.145Z,24.73
2022-08-19T16:59:06.838Z,30.20
2022-08-19T17:02:09.861Z,23.23
2022-08-19T17:05:13.528Z,25.50
2022-08-19T17:08:18.527Z,22.70
2022-08-19T17:11:22.850Z,21.80
2022-08-19T17:14:27.338Z,22.23
2022-08-19T17:17:31.061Z,21.10
2022-08-19T17:20:35.447Z,19.63
2022-08-19T17:23:43.694Z,19.60
2022-08-19T17:26:47.197Z,17.83
2022-08-19T17:29:53.036Z,19.47
2022-08-19T17:32:56.235Z,18.97
2022-08-19T17:35:59.262Z,22.30
2022-08-19T17:39:04.601Z,17.27
2022-08-19T17:42:08.385Z,16.33
2022-08-19T17:45:14.013Z,18.43
2022-08-19T17:48:17.209Z,16.10
2022-08-19T17:51:22.719Z,15.73
2022-08-19T17:54:25.991Z,15.33
2022-08-19T17:57:36.227Z,14.80
2022-08-19T18:00:53.151Z,17.93
2022-08-19T18:03:56.470Z,16.23
2022-08-19T18:07:04.448Z,17.80
2022-08-19T18:10:08.411Z,17.97
2022-08-19T18:13:17.337Z,15.10
2022-08-19T18:16:22.490Z,17.07
2022-08-19T18:19:26.885Z,14.80
2022-08-19T18:22:46.075Z,15.40
2022-08-19T18:25:49.111Z,15.20
2022-08-19T18:28:52.860Z,19.33
2022-08-19T18:31:57.937Z,15.60
2022-08-19T18:35:02.635Z,15.93
2022-08-19T18:38:25.812Z,15.90
2022-08-19T18:41:46.602Z,16.40
2022-08-19T18:45:07.324Z,17.20
2022-08-19T18:48:29.557Z,18.70
2022-08-19T18:51:33.315Z,20.00
2022-08-19T18:54:36.871Z,20.90
2022-08-19T18:57:40.024Z,21.43
2022-08-19T19:00:44.096Z,21.37
2022-08-19T19:03:50.993Z,21.90
2022-08-19T19:06:54.633Z,20.67
2022-08-19T19:09:57.905Z,20.87
2022-08-19T19:13:01.401Z,22.40
2022-08-19T19:16:04.805Z,22.03
2022-08-19T19:19:13.154Z,23.23
2022-08-19T19:22:20.961Z,23.07
2022-08-19T19:25:24.153Z,24.77
2022-08-19T19:28:29.460Z,24.93
2022-08-19T19:31:33.510Z,28.33
2022-08-19T19:34:39.019Z,34.17
2022-08-19T19:37:43.457Z,36.57
2022-08-19T19:40:46.699Z,33.10
2022-08-19T19:43:59.902Z,33.97
2022-08-19T19:47:12.991Z,33.03
2022-08-19T19:50:17.486Z,32.33
2022-08-19T19:53:20.534Z,31.30
2022-08-19T19:56:24.241Z,32.40
2022-08-19T19:59:27.398Z,29.73
2022-08-19T20:02:30.469Z,31.90
2022-08-19T20:05:34.937Z,29.43
2022-08-19T20:09:09.859Z,32.37
2022-08-19T20:12:12.949Z,37.13
2022-08-19T20:15:16.086Z,44.00
2022-08-19T20:18:19.187Z,42.50
2022-08-19T20:21:23.765Z,45.50
2022-08-19T20:24:32.501Z,40.37
2022-08-19T20:27:40.184Z,39.57
2022-08-19T20:30:47.535Z,36.80
2022-08-19T20:33:51.646Z,37.53
2022-08-19T20:36:56.151Z,36.40
2022-08-19T20:39:59.262Z,40.47
2022-08-19T20:43:02.747Z,41.83
2022-08-19T20:46:06.316Z,24.63
2022-08-19T20:49:09.788Z,27.37
2022-08-19T20:52:14.234Z,18.47
2022-08-19T20:55:17.314Z,19.03
2022-08-19T20:58:24.874Z,19.50
2022-08-19T21:01:28.140Z,18.77
2022-08-19T21:04:31.226Z,17.73
2022-08-19T21:07:38.936Z,17.80
2022-08-19T21:10:43.499Z,14.60
2022-08-19T21:13:46.559Z,14.73
2022-08-19T21:16:50.488Z,15.20
2022-08-19T21:19:53.606Z,15.30
2022-08-19T21:22:58.170Z,14.67
2022-08-19T21:26:02.470Z,13.87
2022-08-19T21:29:05.570Z,13.80
2022-08-19T21:32:11.244Z,13.37
2022-08-19T21:35:17.426Z,11.97
2022-08-19T21:38:25.063Z,13.57
2022-08-19T21:41:28.128Z,13.20
2022-08-19T21:44:31.190Z,12.70
2022-08-19T21:47:34.354Z,9.33
2022-08-19T21:50:37.434Z,12.50
2022-08-19T21:53:42.041Z,11.10
2022-08-19T21:56:47.112Z,14.37
2022-08-19T21:59:50.188Z,11.67
2022-08-19T22:02:53.291Z,11.43
2022-08-19T22:05:56.316Z,13.60
2022-08-19T22:09:00.798Z,11.30
2022-08-19T22:12:04.152Z,15.30
2022-08-19T22:15:09.165Z,10.07
2022-08-19T22:18:13.320Z,10.80
2022-08-19T22:21:16.502Z,10.90
2022-08-19T22:24:35.859Z,8.20
2022-08-19T22:27:39.116Z,11.03
2022-08-19T22:30:44.495Z,8.77
2022-08-19T22:33:47.863Z,9.27
2022-08-19T22:36:50.950Z,8.40
2022-08-19T22:39:55.580Z,8.73
2022-08-19T22:43:02.169Z,9.20
2022-08-19T22:46:06.585Z,9.00
2022-08-19T22:49:20.542Z,8.60
2022-08-19T22:52:24.318Z,8.57
2022-08-19T22:55:29.613Z,8.03
2022-08-19T22:58:32.938Z,8.83
2022-08-19T23:01:37.147Z,8.83
2022-08-19T23:04:40.352Z,8.00
2022-08-19T23:07:43.440Z,9.27
2022-08-19T23:10:56.986Z,8.17
2022-08-19T23:14:00.071Z,10.00
2022-08-19T23:17:03.170Z,9.00
2022-08-19T23:20:09.123Z,9.70
2022-08-19T23:23:18.771Z,10.90
2022-08-19T23:26:23.331Z,9.37
2022-08-19T23:29:43.758Z,8.77
2022-08-19T23:32:47.173Z,9.90
2022-08-19T23:35:50.394Z,9.13
2022-08-19T23:38:53.485Z,8.80
2022-08-19T23:41:57.952Z,9.43
2022-08-19T23:45:02.595Z,9.57
2022-08-19T23:48:07.579Z,11.27
2022-08-19T23:51:12.588Z,9.50
2022-08-19T23:54:15.683Z,9.63
2022-08-19T23:57:20.214Z,12.00
